createdAt,value
2023-01-31T00:05:55.025Z,7.82
2023-01-31T00:12:57.199Z,7.81
2023-01-31T00:19:59.031Z,7.71
2023-01-31T00:27:00.818Z,7.69
2023-01-31T00:34:02.909Z,7.55
2023-01-31T00:41:04.895Z,7.57
2023-01-31T00:48:10.216Z,7.54
2023-01-31T00:55:12.165Z,7.52
2023-01-31T01:02:14.173Z,7.60
2023-01-31T01:09:17.542Z,7.75
2023-01-31T01:16:22.190Z,7.84
2023-01-31T01:23:23.958Z,7.77
2023-01-31T01:30:25.838Z,7.79
2023-01-31T01:37:27.664Z,7.88
2023-01-31T01:44:46.043Z,7.94
2023-01-31T01:51:48.751Z,7.81
2023-01-31T01:59:02.830Z,7.85
2023-01-31T02:06:05.135Z,7.81
2023-01-31T02:13:06.933Z,7.79
2023-01-31T02:20:24.171Z,8.00
2023-01-31T02:27:31.838Z,7.91
2023-01-31T02:34:38.398Z,7.87
2023-01-31T02:41:44.285Z,7.93
2023-01-31T02:49:34.395Z,8.11
2023-01-31T02:56:39.732Z,7.93
2023-01-31T03:03:41.656Z,7.95
2023-01-31T03:10:57.894Z,7.88
2023-01-31T03:18:05.829Z,7.39
2023-01-31T03:25:09.015Z,7.55
2023-01-31T03:32:16.273Z,7.41
2023-01-31T03:39:37.919Z,7.37
2023-01-31T03:46:44.606Z,7.34
2023-01-31T03:53:49.525Z,7.26
2023-01-31T04:00:51.957Z,7.19
2023-01-31T04:07:54.640Z,7.28
2023-01-31T04:14:59.013Z,7.25
2023-01-31T04:22:00.848Z,7.21
2023-01-31T04:29:03.117Z,7.11
2023-01-31T04:36:05.202Z,7.16
2023-01-31T04:43:06.881Z,7.22
2023-01-31T04:50:09.117Z,7.11
2023-01-31T04:57:10.904Z,7.17
2023-01-31T05:04:13.777Z,7.14
2023-01-31T05:11:15.459Z,7.27
2023-01-31T05:18:17.234Z,7.25
2023-01-31T05:25:19.140Z,7.17
2023-01-31T05:32:21.040Z,7.06
2023-01-31T05:39:22.686Z,7.32
2023-01-31T05:46:24.401Z,7.27
2023-01-31T05:53:26.202Z,7.51
2023-01-31T06:00:27.908Z,7.55
2023-01-31T06:07:29.546Z,7.68
2023-01-31T06:14:32.283Z,7.58
2023-01-31T06:21:34.035Z,7.72
2023-01-31T06:28:36.663Z,7.66
2023-01-31T06:35:38.545Z,7.82
2023-01-31T06:42:40.290Z,7.95
2023-01-31T06:49:41.950Z,8.03
2023-01-31T06:56:43.948Z,8.18
2023-01-31T07:03:45.581Z,7.89
2023-01-31T07:10:48.277Z,7.91
2023-01-31T07:17:49.941Z,8.12
2023-01-31T07:24:52.080Z,8.12
2023-01-31T07:31:54.719Z,7.84
2023-01-31T07:38:57.212Z,8.04
2023-01-31T07:45:58.939Z,8.17
2023-01-31T07:53:00.623Z,8.27
2023-01-31T08:00:02.749Z,8.20
2023-01-31T08:07:13.168Z,8.27
2023-01-31T08:14:14.865Z,8.35
2023-01-31T08:21:16.644Z,8.12
2023-01-31T08:28:18.634Z,8.39
2023-01-31T08:35:20.548Z,8.24
2023-01-31T08:42:22.415Z,8.29
2023-01-31T08:49:24.034Z,8.37
2023-01-31T08:56:26.355Z,8.46
2023-01-31T09:03:28.060Z,8.60
2023-01-31T09:10:30.156Z,8.67
2023-01-31T09:17:32.247Z,8.69
2023-01-31T09:24:34.012Z,8.61
2023-01-31T09:31:35.771Z,8.62
2023-01-31T09:38:37.674Z,8.97
2023-01-31T09:45:40.003Z,8.81
2023-01-31T09:52:41.656Z,8.93
2023-01-31T09:59:49.334Z,9.28
2023-01-31T10:07:01.507Z,9.20
2023-01-31T10:14:15.271Z,9.27
2023-01-31T10:21:18.456Z,9.19
2023-01-31T10:28:26.241Z,9.03
2023-01-31T10:35:37.157Z,9.19
2023-01-31T10:42:39.627Z,9.09
2023-01-31T10:49:44.492Z,9.26
2023-01-31T10:56:47.564Z,9.27
2023-01-31T11:03:53.713Z,9.45
2023-01-31T11:10:56.254Z,9.16
2023-01-31T11:17:59.474Z,9.72
2023-01-31T11:25:01.981Z,9.54
2023-01-31T11:32:05.503Z,9.49
2023-01-31T11:39:34.594Z,9.67
2023-01-31T11:46:54.390Z,9.75
2023-01-31T11:53:56.180Z,9.68
2023-01-31T12:01:02.460Z,9.81
2023-01-31T12:08:04.341Z,9.87
2023-01-31T12:15:14.522Z,9.77
2023-01-31T12:22:20.645Z,9.66
2023-01-31T12:29:41.201Z,9.62
2023-01-31T12:37:10.261Z,9.44
2023-01-31T12:44:48.202Z,9.37
2023-01-31T12:52:17.618Z,9.59
2023-01-31T12:59:47.593Z,9.35
2023-01-31T13:06:54.457Z,9.13
2023-01-31T13:13:57.739Z,9.20
2023-01-31T13:21:01.974Z,9.10
2023-01-31T13:28:23.695Z,9.09
2023-01-31T13:35:33.382Z,8.90
2023-01-31T13:42:35.337Z,8.79
2023-01-31T13:49:39.084Z,9.04
2023-01-31T13:56:41.006Z,8.71
2023-01-31T14:04:14.665Z,8.74
2023-01-31T14:11:21.982Z,8.91
2023-01-31T14:18:43.388Z,8.88
2023-01-31T14:25:45.122Z,8.54
2023-01-31T14:33:07.148Z,8.77
2023-01-31T14:40:11.768Z,8.92
2023-01-31T14:47:26.152Z,9.00
2023-01-31T14:54:37.588Z,8.91
2023-01-31T15:01:39.605Z,9.15
2023-01-31T15:08:43.553Z,8.94
2023-01-31T15:15:45.142Z,9.20
2023-01-31T15:22:46.838Z,9.08
2023-01-31T15:30:05.218Z,9.29
2023-01-31T15:37:27.315Z,9.23
2023-01-31T15:44:29.265Z,9.16
2023-01-31T15:51:30.885Z,9.20
2023-01-31T15:58:32.596Z,9.21
2023-01-31T16:05:36.206Z,9.35
2023-01-31T16:12:40.528Z,9.34
2023-01-31T16:19:42.153Z,9.40
2023-01-31T16:27:09.231Z,9.31
2023-01-31T16:34:25.448Z,9.43
2023-01-31T16:41:39.510Z,9.55
2023-01-31T16:48:41.935Z,9.54
2023-01-31T16:55:43.665Z,9.48
2023-01-31T17:02:45.335Z,9.29
2023-01-31T17:09:47.104Z,9.46
2023-01-31T17:16:52.591Z,9.63
2023-01-31T17:23:54.284Z,9.46
2023-01-31T17:30:55.991Z,9.67
2023-01-31T17:37:57.862Z,9.53
2023-01-31T17:44:59.519Z,9.51
2023-01-31T17:52:02.117Z,9.47
2023-01-31T17:59:12.258Z,9.78
2023-01-31T18:06:16.883Z,9.57
2023-01-31T18:13:18.980Z,9.73
2023-01-31T18:20:20.861Z,9.65
2023-01-31T18:27:22.659Z,9.88
2023-01-31T18:34:24.825Z,9.84
2023-01-31T18:41:26.724Z,9.87
2023-01-31T18:48:29.223Z,9.85
2023-01-31T18:55:30.921Z,9.92
2023-01-31T19:02:32.681Z,9.87
2023-01-31T19:09:35.331Z,9.92
2023-01-31T19:16:37.737Z,9.84
2023-01-31T19:23:39.551Z,9.90
2023-01-31T19:30:41.385Z,9.07
2023-01-31T19:37:43.219Z,8.36
2023-01-31T19:44:44.906Z,8.31
2023-01-31T19:51:46.607Z,8.52
2023-01-31T19:58:48.174Z,8.56
2023-01-31T20:05:50.078Z,8.49
2023-01-31T20:12:51.708Z,8.59
2023-01-31T20:19:53.363Z,8.91
2023-01-31T20:26:55.342Z,8.76
2023-01-31T20:33:57.229Z,8.60
2023-01-31T20:40:59.178Z,8.56
2023-01-31T20:48:00.939Z,8.56
2023-01-31T20:55:02.618Z,8.47
2023-01-31T21:02:04.419Z,8.57
2023-01-31T21:09:06.139Z,8.54
2023-01-31T21:16:08.314Z,8.66
2023-01-31T21:23:10.142Z,8.54
2023-01-31T21:30:11.985Z,8.57
2023-01-31T21:37:13.696Z,8.81
2023-01-31T21:44:15.319Z,8.58
2023-01-31T21:51:17.935Z,8.30
2023-01-31T21:58:27.336Z,8.43
2023-01-31T22:05:29.173Z,8.01
2023-01-31T22:12:30.890Z,7.98
2023-01-31T22:19:32.660Z,8.02
2023-01-31T22:26:36.299Z,8.05
2023-01-31T22:33:39.235Z,8.08
2023-01-31T22:40:45.032Z,8.02
2023-01-31T22:47:46.748Z,7.98
2023-01-31T22:54:48.363Z,7.98
2023-01-31T23:01:50.053Z,8.15
2023-01-31T23:08:51.945Z,8.07
2023-01-31T23:15:53.896Z,8.22
2023-01-31T23:22:56.517Z,8.20
2023-01-31T23:29:58.243Z,8.30
2023-01-31T23:36:59.909Z,8.36
2023-01-31T23:44:01.544Z,8.53
2023-01-31T23:51:04.259Z,8.46
2023-01-31T23:58:06.027Z,8.48
